地図

経路データ

SID SEASON NUMBER BASIN SUBBASIN NAME ISO_TIME NATURE LAT LON WMO_WIND WMO_PRES WMO_AGENCY TRACK_TYPE DIST2LAND LANDFALL IFLAG USA_AGENCY USA_ATCF_ID USA_LAT USA_LON USA_RECORD USA_STATUS USA_WIND USA_PRES USA_SSHS USA_R34_NE USA_R34_SE USA_R34_SW USA_R34_NW USA_R50_NE USA_R50_SE USA_R50_SW USA_R50_NW USA_R64_NE USA_R64_SE USA_R64_SW USA_R64_NW USA_POCI USA_ROCI USA_RMW USA_EYE TOKYO_LAT TOKYO_LON TOKYO_GRADE TOKYO_WIND TOKYO_PRES TOKYO_R50_DIR TOKYO_R50_LONG TOKYO_R50_SHORT TOKYO_R30_DIR TOKYO_R30_LONG TOKYO_R30_SHORT TOKYO_LAND CMA_LAT CMA_LON CMA_CAT CMA_WIND CMA_PRES HKO_LAT HKO_LON HKO_CAT HKO_WIND HKO_PRES NEWDELHI_LAT NEWDELHI_LON NEWDELHI_GRADE NEWDELHI_WIND NEWDELHI_PRES NEWDELHI_CI NEWDELHI_DP NEWDELHI_POCI REUNION_LAT REUNION_LON REUNION_TYPE REUNION_WIND REUNION_PRES REUNION_TNUM REUNION_CI REUNION_RMW REUNION_R34_NE REUNION_R34_SE REUNION_R34_SW REUNION_R34_NW REUNION_R50_NE REUNION_R50_SE REUNION_R50_SW REUNION_R50_NW REUNION_R64_NE REUNION_R64_SE REUNION_R64_SW REUNION_R64_NW BOM_LAT BOM_LON BOM_TYPE BOM_WIND BOM_PRES BOM_TNUM BOM_CI BOM_RMW BOM_R34_NE BOM_R34_SE BOM_R34_SW BOM_R34_NW BOM_R50_NE BOM_R50_SE BOM_R50_SW BOM_R50_NW BOM_R64_NE BOM_R64_SE BOM_R64_SW BOM_R64_NW BOM_ROCI BOM_POCI BOM_EYE BOM_POS_METHOD BOM_PRES_METHOD NADI_LAT NADI_LON NADI_CAT NADI_WIND NADI_PRES WELLINGTON_LAT WELLINGTON_LON WELLINGTON_WIND WELLINGTON_PRES DS824_LAT DS824_LON DS824_STAGE DS824_WIND DS824_PRES TD9636_LAT TD9636_LON TD9636_STAGE TD9636_WIND TD9636_PRES TD9635_LAT TD9635_LON TD9635_WIND TD9635_PRES TD9635_ROCI NEUMANN_LAT NEUMANN_LON NEUMANN_CLASS NEUMANN_WIND NEUMANN_PRES MLC_LAT MLC_LON MLC_CLASS MLC_WIND MLC_PRES USA_GUST BOM_GUST BOM_GUST_PER REUNION_GUST REUNION_GUST_PER USA_SEAHGT USA_SEARAD_NE USA_SEARAD_SE USA_SEARAD_SW USA_SEARAD_NW STORM_SPEED STORM_DIR
1922029S14070 1922 9 SI MM NOT_NAMED 1922-01-28 18:00:00 NR -14.2000 69.6000 main 1425 1386 __________O___ -1 -14.2000 69.6000 7 9 233
1922029S14070 1922 9 SI MM NOT_NAMED 1922-01-28 21:00:00 NR -14.4646 69.2336 main 1371 1332 __________P___ -1 -14.4646 69.2336 7 9 233
1922029S14070 1922 9 SI MM NOT_NAMED 1922-01-29 00:00:00 NR -14.7231 68.8734 main 1332 1278 __________P___ -1 -14.7231 68.8734 7 9 234
1922029S14070 1922 9 SI MM NOT_NAMED 1922-01-29 03:00:00 NR -14.9700 68.5264 main 1278 1240 __________P___ -1 -14.9700 68.5264 7 8 234
1922029S14070 1922 9 SI MM NOT_NAMED 1922-01-29 06:00:00 TS -15.2000 68.2000 main 1240 1201 _________OO___ -1 -15.2000 68.2000 TC 25 -15.2000 68.2000 7 8 234
1922029S14070 1922 9 SI MM NOT_NAMED 1922-01-29 09:00:00 TS -15.4068 67.8960 main 1201 1162 _________PP___ -1 -15.4001 67.8901 TC 25 -15.4101 67.8990 7 7 235
1922029S14070 1922 9 SI MM NOT_NAMED 1922-01-29 12:00:00 TS -15.6041 67.6112 main 1162 1132 _________OP___ -1 -15.6000 67.6000 TC 25 -15.6072 67.6195 7 7 233
1922029S14070 1922 9 SI MM NOT_NAMED 1922-01-29 15:00:00 TS -15.8004 67.3489 main 1123 1093 _________PP___ -1 -15.7999 67.3424 TC 25 -15.8008 67.3553 7 6 231
1922029S14070 1922 9 SI MM NOT_NAMED 1922-01-29 18:00:00 TS -16.0000 67.1000 main 1093 1064 _________OO___ -1 -16.0000 67.1000 TC 25 -16.0000 67.1000 7 6 231
1922029S14070 1922 9 SI MM NOT_NAMED 1922-01-29 21:00:00 TS -16.1949 66.8462 main 1055 1025 _________PP___ -1 -16.1925 66.8499 TC 25 -16.1974 66.8425 7 6 230
1922029S14070 1922 9 SI MM NOT_NAMED 1922-01-30 00:00:00 TS -16.4024 66.5960 main 1025 996 _________OP___ -1 -16.4000 66.6000 TC 25 -16.4048 66.5920 7 6 227
1922029S14070 1922 9 SI MM NOT_NAMED 1922-01-30 03:00:00 TS -16.6349 66.3515 main 996 953 _________PP___ -1 -16.6349 66.3574 TC 25 -16.6349 66.3455 7 7 224
1922029S14070 1922 9 SI MM NOT_NAMED 1922-01-30 06:00:00 TS -16.9000 66.1000 main 953 910 _________OO___ -1 -16.9000 66.1000 TC 25 -16.9000 66.1000 7 8 224
1922029S14070 1922 9 SI MM NOT_NAMED 1922-01-30 09:00:00 TS -17.1837 65.8051 main 910 868 _________PP___ -1 -17.1775 65.7925 TC 25 -17.1898 65.8178 7 8 222
1922029S14070 1922 9 SI MM NOT_NAMED 1922-01-30 12:00:00 TS -17.5089 65.5202 main 868 832 _________OP___ -1 -17.5000 65.5000 TC 25 -17.5177 65.5405 7 9 216
1922029S14070 1922 9 SI MM NOT_NAMED 1922-01-30 15:00:00 TS -17.8784 65.2814 main 832 798 _________PP___ -1 -17.8700 65.2700 TC 25 -17.8867 65.2929 7 9 207
1922029S14070 1922 9 SI MM NOT_NAMED 1922-01-30 18:00:00 TS -18.3000 65.1000 main 798 772 _________OO___ -1 -18.3000 65.1000 TC 25 -18.3000 65.1000 7 10 198
1922029S14070 1922 9 SI MM NOT_NAMED 1922-01-30 21:00:00 TS -18.7972 64.9750 main 772 751 _________PP___ -1 -18.7850 64.9700 TC 25 -18.8095 64.9800 7 10 190
1922029S14070 1922 9 SI MM NOT_NAMED 1922-01-31 00:00:00 TS -19.3261 64.9085 main 751 743 _________OP___ -1 -19.3000 64.9000 TC 25 -19.3522 64.9170 7 11 184
1922029S14070 1922 9 SI MM NOT_NAMED 1922-01-31 03:00:00 TS -19.8570 64.8903 main 742 740 _________PP___ -1 -19.8450 64.8849 TC 25 -19.8689 64.8956 7 10 181
1922029S14070 1922 9 SI MM NOT_NAMED 1922-01-31 06:00:00 TS -20.3000 64.9000 main 740 740 _________OO___ -1 -20.3000 64.9000 TC 25 -20.3000 64.9000 7 7 179
1922029S14070 1922 9 SI MM NOT_NAMED 1922-01-31 09:00:00 TS -20.5625 64.8959 main 740 740 _________PP___ -1 -20.5525 64.8925 TC 25 -20.5724 64.8992 7 4 177
1922029S14070 1922 9 SI MM NOT_NAMED 1922-01-31 12:00:00 TS -20.7275 64.9099 main 740 740 _________OP___ -1 -20.7000 64.9000 TC 25 -20.7549 64.9198 7 3 169
1922029S14070 1922 9 SI MM NOT_NAMED 1922-01-31 15:00:00 TS -20.8712 64.9490 main 741 741 _________PP___ -1 -20.8575 64.9425 TC 25 -20.8850 64.9555 7 3 163
1922029S14070 1922 9 SI MM NOT_NAMED 1922-01-31 18:00:00 TS -21.0000 65.0000 main 753 753 _________OO___ -1 -21.0000 65.0000 TC 25 -21.0000 65.0000 7 3 162
1922029S14070 1922 9 SI MM NOT_NAMED 1922-01-31 21:00:00 TS -21.1577 65.0484 main 755 755 _________PP___ -1 -21.1500 65.0500 TC 25 -21.1653 65.0468 7 3 163
1922029S14070 1922 9 SI MM NOT_NAMED 1922-02-01 00:00:00 TS -21.3113 65.1000 main 766 766 _________OP___ -1 -21.3000 65.1000 TC 25 -21.3225 65.0999 7 3 162
1922029S14070 1922 9 SI MM NOT_NAMED 1922-02-01 03:00:00 TS -21.4630 65.1553 main 780 780 _________PP___ -1 -21.4575 65.1575 TC 25 -21.4684 65.1531 7 3 162
1922029S14070 1922 9 SI MM NOT_NAMED 1922-02-01 06:00:00 TS -21.6000 65.2000 main 781 781 _________OO___ -1 -21.6000 65.2000 TC 25 -21.6000 65.2000 7 3 166
1922029S14070 1922 9 SI MM NOT_NAMED 1922-02-01 09:00:00 TS -21.7089 65.2121 main 783 783 _________PP___ -1 -21.7075 65.2000 TC 25 -21.7103 65.2242 7 2 172
1922029S14070 1922 9 SI MM NOT_NAMED 1922-02-01 12:00:00 TS -21.8037 65.2213 main 785 785 _________OP___ -1 -21.8000 65.2000 TC 25 -21.8075 65.2427 7 2 166
1922029S14070 1922 9 SI MM NOT_NAMED 1922-02-01 15:00:00 TS -21.8967 65.2536 main 798 798 _________PP___ -1 -21.8925 65.2425 TC 25 -21.9009 65.2648 7 2 160
1922029S14070 1922 9 SI MM NOT_NAMED 1922-02-01 18:00:00 TS -22.0000 65.3000 main 800 800 _________OO___ -1 -22.0000 65.3000 TC 25 -22.0000 65.3000 7 3 159
1922029S14070 1922 9 SI MM NOT_NAMED 1922-02-01 21:00:00 TS -22.1310 65.3488 main 802 802 _________PP___ -1 -22.1500 65.3425 TC 25 -22.1119 65.3552 7 3 158
1922029S14070 1922 9 SI MM NOT_NAMED 1922-02-02 00:00:00 TS -22.2675 65.4136 main 818 818 _________OP___ -1 -22.3000 65.4000 TC 25 -22.2351 65.4273 7 3 151
1922029S14070 1922 9 SI MM NOT_NAMED 1922-02-02 03:00:00 TS -22.3891 65.5004 main 830 830 _________PP___ -1 -22.4125 65.4900 TC 25 -22.3657 65.5107 7 3 143
1922029S14070 1922 9 SI MM NOT_NAMED 1922-02-02 06:00:00 TS -22.5000 65.6000 main 843 _________OO___ -1 -22.5000 65.6000 TC 25 -22.5000 65.6000 7 3 141

IBTrACS Databaseについて

本データベースは、米国NOAAが公開する1842年以降の世界の熱帯低気圧のベストトラックデータアーカイブInternational Best Track Archive for Climate Stewardship (IBTrACS)を、ウェブで閲覧しやすい形式に変換したものです。

最終更新日:2021-10-08